Pauma Valley, CA (92061)

11:59 AM PDT en Octubre 25, 2014 (GMT -0700)
Pauma Heights | Change Station
CLOSE
Current Station
Estación meteorológica personal
Location: Valley Center, CA
Altura: 1565 ft
Estaciones meteorológicas cercanas

Alt 1565 ft 33.28 °N, 117.02 °W | Updated 2 seconds ago

Despejado
Despejado
79.0 ° F
Sensación térmica 79 ° F
N
5.0
Viento Variable Viento desde ONO
Gusts 9.0 mph

Hoy
Alta -- | Baja -- ° F
--% Posibilidad de precipitaciones
Ayer
Alta -- | Baja -- ° F
Precip. -- pul
7:00 AM 6:02 PM
Creciente, 4% visible
Presión 30.03 pul
Visibilidad 10.0 Millas
Nubes Despejado
Índice de calor 79 ° F
Punto de rocío 47 ° F
Humedad 33%
Precipitaciones 0.00 pul
Espesor de la nieve No disponible.
UV 6 de una escala de 12
Polen 3.90 de una escala de 12
Ozono Buena
PM2.5 Buena
Flu Activity Sporadic
METAR KRNM 251853Z 31010KT 10SM CLR 27/08 A3007 RMK AO2 SLP167 T02720078

More Conditions Fewer Conditions

Presión 30.03 pul
Visibilidad 10.0 Millas
Nubes Despejado
Índice de calor 79 ° F
Punto de rocío 47 ° F
Humedad 33%
Precipitaciones 0.00 pul
Espesor de la nieve No disponible.
UV 6 de una escala de 12
Polen 3.90 de una escala de 12
Ozono Buena
PM2.5 Buena
Flu Activity Sporadic
METAR KRNM 251853Z 31010KT 10SM CLR 27/08 A3007 RMK AO2 SLP167 T02720078

More Conditions Fewer Conditions

10-Day Weather Forecast

Almanac

Astronomía

Oct. 25, 2014 Salida Puesta
Hora real 7:00 AM PDT 6:02 PM PDT
Crepúsculo civil 6:35 AM PDT 6:28 PM PDT
Crepúsculo náutico 6:06 AM PDT 6:57 PM PDT
Crepúsculo astronómico 5:37 AM PDT 7:26 PM PDT
Luna 8:40 AM PDT 7:33 PM PDT
Horas de luz 11h 53m
Horas de luz
11h 02m
Tomorrow will be 1m 53s shorter.
Creciente, 4% of the Moon is Illuminated
Hoy
Creciente
Oct 30
Cuarto creciente
Nov 6
Luna llena
Nov 14
Cuarto menguante
Nov 22
Nueva

Extremos de hoy

Máximos del estado Bajos del estado

Community

WunderPhotos

Upload Photos

1,764,954 ¡fotos cargadas!

Nearby

Calidad del aire

  Calidad del aire Índice AQ Contaminante
Ayer Buena
OZONE
Ayer Buena
PM2.5
Real Buena
OZONE
Real Buena
PM2.5
Sábado Moderada
OZONE
Sábado Buena
PM2.5
Domingo Buena
PM2.5
Domingo Buena
OZONE
Lunes Buena
PM2.5
Lunes Buena
OZONE

Grosos de nieve

Estación Profundido Altura
Virginia Lakes Ridge 0 in 9200 ft
Leavitt Lake 0 in 9400 ft
Leavitt Meadows 0 in 7200 ft
Sonora Pass 0 in 8800 ft
Summit Meadow 0 in 9122 ft

Actividad de terremotos

Ciudad Distance Mag. Tiempo y dato
Running Springs, California 66 Millas 3.1 4:07 AM PDT
2014-10-25
Maneadero, Mexico 132 Millas 2.5 7:44 AM PDT
2014-10-24
San Felipe, Mexico 153 Millas 3.0 11:00 PM PDT
2014-10-23
Brea, California 68 Millas 2.9 3:35 PM PDT
2014-10-23
Magnitud mínima muestra es 2,5.

Temperaturas de aguas costeras

Lugar Temperatura
La Jolla, CA 70.0 ° F
San Diego, CA 73.9 ° F

Estaciones meteorológicas cercanas